CDT,Max TemperatureF,Mean TemperatureF,Min TemperatureF,Max Dew PointF,MeanDew PointF,Min DewpointF,Max Humidity, Mean Humidity, Min Humidity, Max Sea Level PressureIn, Mean Sea Level PressureIn, Min Sea Level PressureIn, Max VisibilityMiles, Mean VisibilityMiles, Min VisibilityMiles, Max Wind SpeedMPH, Mean Wind SpeedMPH, Max Gust SpeedMPH,PrecipitationIn, CloudCover, Events, WindDirDegrees
2013-7-1,85,71,57,59,54,48,87,58,29,30.19,30.15,30.11,,,,10,4,16,0.00,,,7
2013-7-2,86,72,57,63,54,46,93,60,27,30.12,30.07,29.99,,,,14,4,16,0.00,,,11
2013-7-3,86,72,57,60,56,52,93,63,32,30.00,29.93,29.84,,,,15,5,18,0.00,,,173
2013-7-4,89,74,59,65,59,55,90,62,34,29.84,29.73,29.67,,,,23,11,30,0.00,,,190
2013-7-5,89,78,67,69,63,58,81,59,36,29.71,29.69,29.67,,,,12,5,16,0.00,,,251
2013-7-6,83,76,69,72,69,64,100,83,65,29.74,29.71,29.69,,,,14,5,18,0.03,,,149
2013-7-7,87,74,60,73,67,60,100,76,51,29.92,29.82,29.73,,,,17,7,23,0.00,,,349
2013-7-8,86,72,57,68,63,56,97,73,48,29.96,29.91,29.84,,,,12,3,15,0.00,,,171
2013-7-9,82,72,61,69,66,61,100,81,62,30.00,29.84,29.65,,,,28,11,37,1.74,,,341
2013-7-10,80,68,56,63,57,54,100,71,42,30.09,30.04,29.98,,,,8,4,10,0.00,,,317
2013-7-11,85,71,57,67,62,56,100,76,51,30.01,29.91,29.78,,,,22,11,30,0.00,,,178
2013-7-12,91,82,73,75,68,61,100,78,56,29.76,29.71,29.66,,,,25,13,38,0.19,,,186
2013-7-13,85,78,70,76,72,69,100,87,74,29.94,29.85,29.77,,,,15,6,21,0.00,,,76
2013-7-14,74,71,68,71,69,68,100,97,93,30.13,30.01,29.91,,,,20,5,24,0.27,,,116
2013-7-15,85,77,68,70,68,66,100,78,55,30.14,30.09,30.03,,,,16,6,21,0.00,,,175
2013-7-16,88,78,67,70,67,65,100,74,48,30.11,30.06,30.02,,,,21,11,29,0.00,,,219
2013-7-17,89,78,67,71,68,64,100,72,44,30.13,30.08,29.98,,,,20,10,25,0.00,,,211
2013-7-18,91,83,74,73,70,67,87,71,55,29.97,29.78,29.66,,,,22,13,30,0.00,,,242
2013-7-19,84,73,62,67,61,59,87,66,44,29.90,29.83,29.73,,,,20,9,25,0.00,,,327
2013-7-20,77,68,59,64,60,57,97,81,64,29.97,29.91,29.86,,,,17,6,28,0.09,,,7
2013-7-21,83,70,57,67,63,56,97,76,55,29.90,29.79,29.62,,,,13,6,18,0.00,,,174
2013-7-22,76,67,57,68,62,55,100,79,57,29.91,29.75,29.62,,,,21,10,25,0.19,,,348
2013-7-23,75,64,52,58,55,52,100,75,49,30.02,29.99,29.93,,,,10,4,15,0.00,,,352
2013-7-24,82,67,52,63,58,53,100,73,45,30.04,29.98,29.88,,,,14,4,22,0.00,,,288
2013-7-25,81,69,56,63,58,51,97,71,45,29.97,29.92,29.89,,,,16,6,24,0.10,,,333
2013-7-26,70,60,50,54,50,44,93,68,42,30.15,30.09,29.98,,,,23,13,31,0.00,,,352
2013-7-27,71,59,46,49,46,44,100,70,40,30.17,30.09,30.01,,,,18,9,25,0.00,,,352
2013-7-28,74,58,42,55,47,40,96,67,38,30.06,30.04,30.01,,,,9,2,14,0.00,,,344
2013-7-29,70,58,46,61,55,45,100,79,57,30.05,30.03,30.00,,,,14,4,18,0.19,,,165
2013-7-30,80,69,58,64,61,57,100,81,62,30.06,30.03,29.98,,,,12,2,15,0.00,,,282
2013-7-31,79,66,53,61,56,50,97,68,39,30.09,30.05,30.01,,,,17,6,24,0.00,,,330